Terminal Aerodrome Forecast
Issued by NWS

Home | Current Version | Previous Version | Text Only | Print | Product List | Glossary On
Versions: 1 2 3 4 5 6 7 8 9 10 11 12 13 14 15
000
FTUS43 KDLH 190520
TAFHYR
TAF
KHYR 190520Z 1906/2006 VRB05KT P6SM FEW250 WS020/29035KT
     FM190900 VRB03KT P6SM FEW250
     FM191800 23007KT P6SM SKC
     FM192300 20006KT P6SM SKC
     FM200200 19006KT P6SM SKC WS020/21035KT=

USA.gov is the U.S. government's official web portal to all federal, state and local government web resources and services.